sensor_id;sensor_type;location;lat;lon;timestamp;temperature;humidity
2389;DHT22;1205;47.984;7.668;2022-08-21T00:00:28;18.20;99.90
2389;DHT22;1205;47.984;7.668;2022-08-21T00:02:57;18.10;99.90
2389;DHT22;1205;47.984;7.668;2022-08-21T00:05:24;18.10;99.90
2389;DHT22;1205;47.984;7.668;2022-08-21T00:07:51;18.10;99.90
2389;DHT22;1205;47.984;7.668;2022-08-21T00:10:18;18.10;99.90
2389;DHT22;1205;47.984;7.668;2022-08-21T00:12:44;18.00;99.90
2389;DHT22;1205;47.984;7.668;2022-08-21T00:15:13;18.10;99.90
2389;DHT22;1205;47.984;7.668;2022-08-21T00:17:39;18.00;99.90
2389;DHT22;1205;47.984;7.668;2022-08-21T00:20:07;17.90;99.90
2389;DHT22;1205;47.984;7.668;2022-08-21T00:22:34;17.80;99.90
2389;DHT22;1205;47.984;7.668;2022-08-21T00:25:00;18.00;99.90
2389;DHT22;1205;47.984;7.668;2022-08-21T00:27:26;17.80;99.90
2389;DHT22;1205;47.984;7.668;2022-08-21T00:29:51;17.80;99.90
2389;DHT22;1205;47.984;7.668;2022-08-21T00:32:23;17.80;99.90
2389;DHT22;1205;47.984;7.668;2022-08-21T00:34:50;17.90;99.90
2389;DHT22;1205;47.984;7.668;2022-08-21T00:37:16;17.80;99.90
2389;DHT22;1205;47.984;7.668;2022-08-21T00:39:41;17.90;99.90
2389;DHT22;1205;47.984;7.668;2022-08-21T00:42:07;17.90;99.90
2389;DHT22;1205;47.984;7.668;2022-08-21T00:44:33;18.00;99.90
2389;DHT22;1205;47.984;7.668;2022-08-21T00:46:58;18.00;99.90
2389;DHT22;1205;47.984;7.668;2022-08-21T00:49:24;18.00;99.90
2389;DHT22;1205;47.984;7.668;2022-08-21T00:51:55;18.10;99.90
2389;DHT22;1205;47.984;7.668;2022-08-21T00:54:25;18.30;99.90
2389;DHT22;1205;47.984;7.668;2022-08-21T00:56:54;18.20;99.90
2389;DHT22;1205;47.984;7.668;2022-08-21T00:59:21;18.20;99.90
2389;DHT22;1205;47.984;7.668;2022-08-21T01:01:48;18.20;99.90
2389;DHT22;1205;47.984;7.668;2022-08-21T01:04:15;18.20;99.90
2389;DHT22;1205;47.984;7.668;2022-08-21T01:06:42;18.00;99.90
2389;DHT22;1205;47.984;7.668;2022-08-21T01:09:07;17.90;99.90
2389;DHT22;1205;47.984;7.668;2022-08-21T01:11:34;17.90;99.90
2389;DHT22;1205;47.984;7.668;2022-08-21T01:14:00;18.00;99.90
2389;DHT22;1205;47.984;7.668;2022-08-21T01:16:26;18.00;99.90
2389;DHT22;1205;47.984;7.668;2022-08-21T01:18:52;17.80;99.90
2389;DHT22;1205;47.984;7.668;2022-08-21T01:21:19;17.90;99.90
2389;DHT22;1205;47.984;7.668;2022-08-21T01:23:49;17.70;99.90
2389;DHT22;1205;47.984;7.668;2022-08-21T01:26:18;17.80;99.90
2389;DHT22;1205;47.984;7.668;2022-08-21T01:28:55;17.70;99.90
2389;DHT22;1205;47.984;7.668;2022-08-21T01:31:24;17.70;99.90
2389;DHT22;1205;47.984;7.668;2022-08-21T01:33:51;17.60;99.90
2389;DHT22;1205;47.984;7.668;2022-08-21T01:36:17;17.80;99.90
2389;DHT22;1205;47.984;7.668;2022-08-21T01:38:43;17.70;99.90
2389;DHT22;1205;47.984;7.668;2022-08-21T01:41:08;17.80;99.90
2389;DHT22;1205;47.984;7.668;2022-08-21T01:43:34;17.70;99.90
2389;DHT22;1205;47.984;7.668;2022-08-21T01:46:00;17.90;99.90
2389;DHT22;1205;47.984;7.668;2022-08-21T01:48:25;17.90;99.90
2389;DHT22;1205;47.984;7.668;2022-08-21T01:50:51;17.60;99.90
2389;DHT22;1205;47.984;7.668;2022-08-21T01:53:16;17.70;99.90
2389;DHT22;1205;47.984;7.668;2022-08-21T01:55:43;17.90;99.90
2389;DHT22;1205;47.984;7.668;2022-08-21T01:58:09;17.60;99.90
2389;DHT22;1205;47.984;7.668;2022-08-21T02:00:35;17.70;99.90
2389;DHT22;1205;47.984;7.668;2022-08-21T02:03:00;17.50;99.90
2389;DHT22;1205;47.984;7.668;2022-08-21T02:05:26;17.60;99.90
2389;DHT22;1205;47.984;7.668;2022-08-21T02:07:52;17.60;99.90
2389;DHT22;1205;47.984;7.668;2022-08-21T02:10:23;17.60;99.90
2389;DHT22;1205;47.984;7.668;2022-08-21T02:12:49;17.50;99.90
2389;DHT22;1205;47.984;7.668;2022-08-21T02:15:15;17.40;99.90
2389;DHT22;1205;47.984;7.668;2022-08-21T02:17:47;17.50;99.90
2389;DHT22;1205;47.984;7.668;2022-08-21T02:20:27;17.40;99.90
2389;DHT22;1205;47.984;7.668;2022-08-21T02:22:53;17.40;99.90
2389;DHT22;1205;47.984;7.668;2022-08-21T02:25:21;17.30;99.90
2389;DHT22;1205;47.984;7.668;2022-08-21T02:27:47;17.30;99.90
2389;DHT22;1205;47.984;7.668;2022-08-21T02:30:34;17.40;99.90
2389;DHT22;1205;47.984;7.668;2022-08-21T02:33:00;17.40;99.90
2389;DHT22;1205;47.984;7.668;2022-08-21T02:35:27;17.40;99.90
2389;DHT22;1205;47.984;7.668;2022-08-21T02:37:57;17.40;99.90
2389;DHT22;1205;47.984;7.668;2022-08-21T02:40:26;17.30;99.90
2389;DHT22;1205;47.984;7.668;2022-08-21T02:42:52;17.40;99.90
2389;DHT22;1205;47.984;7.668;2022-08-21T02:45:18;17.40;99.90
2389;DHT22;1205;47.984;7.668;2022-08-21T02:47:53;17.30;99.90
2389;DHT22;1205;47.984;7.668;2022-08-21T02:50:25;17.10;99.90
2389;DHT22;1205;47.984;7.668;2022-08-21T02:52:52;17.00;99.90
2389;DHT22;1205;47.984;7.668;2022-08-21T02:55:21;17.00;99.90
2389;DHT22;1205;47.984;7.668;2022-08-21T02:57:48;17.10;99.90
2389;DHT22;1205;47.984;7.668;2022-08-21T03:00:15;17.20;99.90
2389;DHT22;1205;47.984;7.668;2022-08-21T03:02:41;17.30;99.90
2389;DHT22;1205;47.984;7.668;2022-08-21T03:05:09;17.20;99.90
2389;DHT22;1205;47.984;7.668;2022-08-21T03:07:37;17.10;99.90
2389;DHT22;1205;47.984;7.668;2022-08-21T03:10:04;17.10;99.90
2389;DHT22;1205;47.984;7.668;2022-08-21T03:12:30;17.10;99.90
2389;DHT22;1205;47.984;7.668;2022-08-21T03:14:55;17.00;99.90
2389;DHT22;1205;47.984;7.668;2022-08-21T03:17:22;17.00;99.90
2389;DHT22;1205;47.984;7.668;2022-08-21T03:19:47;17.00;99.90
2389;DHT22;1205;47.984;7.668;2022-08-21T03:22:13;17.10;99.90
2389;DHT22;1205;47.984;7.668;2022-08-21T03:24:38;17.00;99.90
2389;DHT22;1205;47.984;7.668;2022-08-21T03:27:04;16.80;99.90
2389;DHT22;1205;47.984;7.668;2022-08-21T03:29:29;16.80;99.90
2389;DHT22;1205;47.984;7.668;2022-08-21T03:31:55;17.00;99.90
2389;DHT22;1205;47.984;7.668;2022-08-21T03:34:21;16.80;99.90
2389;DHT22;1205;47.984;7.668;2022-08-21T03:36:47;16.70;99.90
2389;DHT22;1205;47.984;7.668;2022-08-21T03:39:14;16.50;99.90
2389;DHT22;1205;47.984;7.668;2022-08-21T03:41:40;16.40;99.90
2389;DHT22;1205;47.984;7.668;2022-08-21T03:44:06;16.60;99.90
2389;DHT22;1205;47.984;7.668;2022-08-21T03:46:32;16.70;99.90
2389;DHT22;1205;47.984;7.668;2022-08-21T03:48:58;16.60;99.90
2389;DHT22;1205;47.984;7.668;2022-08-21T03:51:23;16.50;99.90
2389;DHT22;1205;47.984;7.668;2022-08-21T03:53:49;16.40;99.90
2389;DHT22;1205;47.984;7.668;2022-08-21T03:56:15;16.40;99.90
2389;DHT22;1205;47.984;7.668;2022-08-21T03:58:41;16.30;99.90
2389;DHT22;1205;47.984;7.668;2022-08-21T04:01:07;16.30;99.90
2389;DHT22;1205;47.984;7.668;2022-08-21T04:03:34;16.30;99.90
2389;DHT22;1205;47.984;7.668;2022-08-21T04:06:00;16.20;99.90
2389;DHT22;1205;47.984;7.668;2022-08-21T04:08:26;16.20;99.90
2389;DHT22;1205;47.984;7.668;2022-08-21T04:10:53;16.20;99.90
2389;DHT22;1205;47.984;7.668;2022-08-21T04:13:20;16.40;99.90
2389;DHT22;1205;47.984;7.668;2022-08-21T04:15:46;16.40;99.90
2389;DHT22;1205;47.984;7.668;2022-08-21T04:18:12;16.20;99.90
2389;DHT22;1205;47.984;7.668;2022-08-21T04:20:39;16.40;99.90
2389;DHT22;1205;47.984;7.668;2022-08-21T04:23:05;16.20;99.90
2389;DHT22;1205;47.984;7.668;2022-08-21T04:25:31;16.20;99.90
2389;DHT22;1205;47.984;7.668;2022-08-21T04:27:57;16.30;99.90
2389;DHT22;1205;47.984;7.668;2022-08-21T04:30:24;16.30;99.90
2389;DHT22;1205;47.984;7.668;2022-08-21T04:32:51;16.30;99.90
2389;DHT22;1205;47.984;7.668;2022-08-21T04:35:22;16.30;99.90
2389;DHT22;1205;47.984;7.668;2022-08-21T04:37:48;16.30;99.90
2389;DHT22;1205;47.984;7.668;2022-08-21T04:40:16;16.40;99.90
2389;DHT22;1205;47.984;7.668;2022-08-21T04:42:48;16.20;99.90
2389;DHT22;1205;47.984;7.668;2022-08-21T04:45:26;16.10;99.90
2389;DHT22;1205;47.984;7.668;2022-08-21T04:47:54;16.30;99.90
2389;DHT22;1205;47.984;7.668;2022-08-21T04:50:24;16.20;99.90
2389;DHT22;1205;47.984;7.668;2022-08-21T04:52:51;16.20;99.90
2389;DHT22;1205;47.984;7.668;2022-08-21T04:55:17;16.20;99.90
2389;DHT22;1205;47.984;7.668;2022-08-21T04:57:44;16.20;99.90
2389;DHT22;1205;47.984;7.668;2022-08-21T05:00:10;16.30;99.90
2389;DHT22;1205;47.984;7.668;2022-08-21T05:02:38;16.40;99.90
2389;DHT22;1205;47.984;7.668;2022-08-21T05:05:05;16.50;99.90
2389;DHT22;1205;47.984;7.668;2022-08-21T05:07:31;16.50;99.90
2389;DHT22;1205;47.984;7.668;2022-08-21T05:09:59;16.40;99.90
2389;DHT22;1205;47.984;7.668;2022-08-21T05:12:25;16.30;99.90
2389;DHT22;1205;47.984;7.668;2022-08-21T05:14:51;16.50;99.90
2389;DHT22;1205;47.984;7.668;2022-08-21T05:17:16;16.60;99.90
2389;DHT22;1205;47.984;7.668;2022-08-21T05:19:42;16.70;99.90
2389;DHT22;1205;47.984;7.668;2022-08-21T05:22:07;16.60;99.90
2389;DHT22;1205;47.984;7.668;2022-08-21T05:24:34;16.70;99.90
2389;DHT22;1205;47.984;7.668;2022-08-21T05:27:00;16.60;99.90
2389;DHT22;1205;47.984;7.668;2022-08-21T05:29:26;16.50;99.90
2389;DHT22;1205;47.984;7.668;2022-08-21T05:31:52;16.40;99.90
2389;DHT22;1205;47.984;7.668;2022-08-21T05:34:20;16.70;99.90
2389;DHT22;1205;47.984;7.668;2022-08-21T05:36:46;17.00;99.90
2389;DHT22;1205;47.984;7.668;2022-08-21T05:39:12;16.90;99.90
2389;DHT22;1205;47.984;7.668;2022-08-21T05:41:38;17.00;99.90
2389;DHT22;1205;47.984;7.668;2022-08-21T05:44:04;17.00;99.90
2389;DHT22;1205;47.984;7.668;2022-08-21T05:46:30;17.20;99.90
2389;DHT22;1205;47.984;7.668;2022-08-21T05:48:55;17.40;99.90
2389;DHT22;1205;47.984;7.668;2022-08-21T05:51:21;17.80;99.90
2389;DHT22;1205;47.984;7.668;2022-08-21T05:53:47;18.20;99.90
2389;DHT22;1205;47.984;7.668;2022-08-21T05:56:14;18.60;99.90
2389;DHT22;1205;47.984;7.668;2022-08-21T05:58:40;18.90;99.90
2389;DHT22;1205;47.984;7.668;2022-08-21T06:01:06;19.10;99.90
2389;DHT22;1205;47.984;7.668;2022-08-21T06:03:36;19.20;99.90
2389;DHT22;1205;47.984;7.668;2022-08-21T06:06:02;19.50;99.90
2389;DHT22;1205;47.984;7.668;2022-08-21T06:08:28;19.60;99.90
2389;DHT22;1205;47.984;7.668;2022-08-21T06:10:55;19.70;99.90
2389;DHT22;1205;47.984;7.668;2022-08-21T06:13:21;19.70;99.90
2389;DHT22;1205;47.984;7.668;2022-08-21T06:15:47;19.70;99.90
2389;DHT22;1205;47.984;7.668;2022-08-21T06:18:14;19.90;99.90
2389;DHT22;1205;47.984;7.668;2022-08-21T06:20:40;20.00;99.90
2389;DHT22;1205;47.984;7.668;2022-08-21T06:23:06;20.10;99.90
2389;DHT22;1205;47.984;7.668;2022-08-21T06:25:31;20.10;99.90
2389;DHT22;1205;47.984;7.668;2022-08-21T06:28:08;20.10;99.90
2389;DHT22;1205;47.984;7.668;2022-08-21T06:30:36;20.10;99.90
2389;DHT22;1205;47.984;7.668;2022-08-21T06:33:02;20.10;99.90
2389;DHT22;1205;47.984;7.668;2022-08-21T06:35:28;20.00;99.90
2389;DHT22;1205;47.984;7.668;2022-08-21T06:37:55;20.00;99.90
2389;DHT22;1205;47.984;7.668;2022-08-21T06:40:21;19.70;99.90
2389;DHT22;1205;47.984;7.668;2022-08-21T06:42:46;19.80;99.90
2389;DHT22;1205;47.984;7.668;2022-08-21T06:45:12;20.30;99.90
2389;DHT22;1205;47.984;7.668;2022-08-21T06:47:38;20.90;99.90
2389;DHT22;1205;47.984;7.668;2022-08-21T06:50:04;21.10;99.90
2389;DHT22;1205;47.984;7.668;2022-08-21T06:52:30;21.20;99.90
2389;DHT22;1205;47.984;7.668;2022-08-21T06:54:55;21.70;99.90
2389;DHT22;1205;47.984;7.668;2022-08-21T06:57:21;22.20;99.90
2389;DHT22;1205;47.984;7.668;2022-08-21T06:59:47;22.70;99.90
2389;DHT22;1205;47.984;7.668;2022-08-21T07:02:12;22.90;99.90
2389;DHT22;1205;47.984;7.668;2022-08-21T07:04:38;23.00;99.90
2389;DHT22;1205;47.984;7.668;2022-08-21T07:07:03;23.30;99.90
2389;DHT22;1205;47.984;7.668;2022-08-21T07:09:29;23.40;99.90
2389;DHT22;1205;47.984;7.668;2022-08-21T07:11:55;23.00;99.90
2389;DHT22;1205;47.984;7.668;2022-08-21T07:14:22;23.30;99.90
2389;DHT22;1205;47.984;7.668;2022-08-21T07:16:48;23.20;99.90
2389;DHT22;1205;47.984;7.668;2022-08-21T07:19:14;23.40;99.90
2389;DHT22;1205;47.984;7.668;2022-08-21T07:21:40;23.70;99.90
2389;DHT22;1205;47.984;7.668;2022-08-21T07:24:06;23.50;98.90
2389;DHT22;1205;47.984;7.668;2022-08-21T07:26:31;23.70;99.90
2389;DHT22;1205;47.984;7.668;2022-08-21T07:28:57;24.20;99.00
2389;DHT22;1205;47.984;7.668;2022-08-21T07:31:24;24.50;98.60
2389;DHT22;1205;47.984;7.668;2022-08-21T07:33:50;24.80;98.70
2389;DHT22;1205;47.984;7.668;2022-08-21T07:36:16;24.80;97.80
2389;DHT22;1205;47.984;7.668;2022-08-21T07:38:42;25.00;98.40
2389;DHT22;1205;47.984;7.668;2022-08-21T07:41:22;25.40;97.70
2389;DHT22;1205;47.984;7.668;2022-08-21T07:43:48;25.60;97.50
2389;DHT22;1205;47.984;7.668;2022-08-21T07:46:14;25.40;96.90
2389;DHT22;1205;47.984;7.668;2022-08-21T07:48:40;25.60;97.20
2389;DHT22;1205;47.984;7.668;2022-08-21T07:51:09;25.60;96.20
2389;DHT22;1205;47.984;7.668;2022-08-21T07:53:35;25.60;96.80
2389;DHT22;1205;47.984;7.668;2022-08-21T07:56:01;25.60;96.30
2389;DHT22;1205;47.984;7.668;2022-08-21T07:58:27;25.80;96.10
2389;DHT22;1205;47.984;7.668;2022-08-21T08:00:53;25.90;95.90
2389;DHT22;1205;47.984;7.668;2022-08-21T08:03:18;25.80;95.40
2389;DHT22;1205;47.984;7.668;2022-08-21T08:05:44;25.40;95.90
2389;DHT22;1205;47.984;7.668;2022-08-21T08:08:10;25.00;96.10
2389;DHT22;1205;47.984;7.668;2022-08-21T08:10:37;25.20;96.60
2389;DHT22;1205;47.984;7.668;2022-08-21T08:13:03;24.90;96.20
2389;DHT22;1205;47.984;7.668;2022-08-21T08:15:29;24.80;96.70
2389;DHT22;1205;47.984;7.668;2022-08-21T08:17:55;24.60;96.50
2389;DHT22;1205;47.984;7.668;2022-08-21T08:20:23;25.00;96.60
2389;DHT22;1205;47.984;7.668;2022-08-21T08:22:50;25.30;95.90
2389;DHT22;1205;47.984;7.668;2022-08-21T08:25:17;25.50;95.20
2389;DHT22;1205;47.984;7.668;2022-08-21T08:27:43;24.80;94.90
2389;DHT22;1205;47.984;7.668;2022-08-21T08:30:11;25.20;95.60
2389;DHT22;1205;47.984;7.668;2022-08-21T08:32:37;25.40;95.50
2389;DHT22;1205;47.984;7.668;2022-08-21T08:35:04;25.30;95.60
2389;DHT22;1205;47.984;7.668;2022-08-21T08:37:30;25.40;95.20
2389;DHT22;1205;47.984;7.668;2022-08-21T08:39:57;25.60;95.20
2389;DHT22;1205;47.984;7.668;2022-08-21T08:42:28;25.50;94.70
2389;DHT22;1205;47.984;7.668;2022-08-21T08:45:02;25.50;95.20
2389;DHT22;1205;47.984;7.668;2022-08-21T08:47:30;25.20;94.40
2389;DHT22;1205;47.984;7.668;2022-08-21T08:50:27;24.70;95.30
2389;DHT22;1205;47.984;7.668;2022-08-21T08:52:58;24.20;95.80
2389;DHT22;1205;47.984;7.668;2022-08-21T08:55:38;24.10;95.70
2389;DHT22;1205;47.984;7.668;2022-08-21T08:58:06;24.30;96.40
2389;DHT22;1205;47.984;7.668;2022-08-21T09:00:32;23.90;96.00
2389;DHT22;1205;47.984;7.668;2022-08-21T09:03:01;23.60;96.80
2389;DHT22;1205;47.984;7.668;2022-08-21T09:05:31;23.60;97.00
2389;DHT22;1205;47.984;7.668;2022-08-21T09:14:01;23.50;96.00
2389;DHT22;1205;47.984;7.668;2022-08-21T09:19:10;23.40;95.50
2389;DHT22;1205;47.984;7.668;2022-08-21T09:21:48;23.30;96.30
2389;DHT22;1205;47.984;7.668;2022-08-21T09:24:22;23.60;96.00
2389;DHT22;1205;47.984;7.668;2022-08-21T09:27:09;23.40;95.40
2389;DHT22;1205;47.984;7.668;2022-08-21T09:29:38;23.40;95.60
2389;DHT22;1205;47.984;7.668;2022-08-21T09:32:11;23.40;96.00
2389;DHT22;1205;47.984;7.668;2022-08-21T09:34:38;23.60;96.40
2389;DHT22;1205;47.984;7.668;2022-08-21T09:37:04;23.50;96.00
2389;DHT22;1205;47.984;7.668;2022-08-21T09:39:40;23.50;96.10
2389;DHT22;1205;47.984;7.668;2022-08-21T09:42:09;23.40;96.10
2389;DHT22;1205;47.984;7.668;2022-08-21T09:44:39;23.60;96.50
2389;DHT22;1205;47.984;7.668;2022-08-21T09:47:07;23.70;94.50
2389;DHT22;1205;47.984;7.668;2022-08-21T09:49:37;23.60;93.50
2389;DHT22;1205;47.984;7.668;2022-08-21T09:52:13;23.60;94.30
2389;DHT22;1205;47.984;7.668;2022-08-21T09:54:40;23.60;94.20
2389;DHT22;1205;47.984;7.668;2022-08-21T09:59:53;23.70;93.80
2389;DHT22;1205;47.984;7.668;2022-08-21T10:04:56;23.70;93.30
2389;DHT22;1205;47.984;7.668;2022-08-21T10:07:24;23.70;92.10
2389;DHT22;1205;47.984;7.668;2022-08-21T10:12:48;23.80;92.50
2389;DHT22;1205;47.984;7.668;2022-08-21T10:20:44;23.70;92.50
2389;DHT22;1205;47.984;7.668;2022-08-21T10:29:33;23.80;90.80
2389;DHT22;1205;47.984;7.668;2022-08-21T10:31:59;23.80;91.50
2389;DHT22;1205;47.984;7.668;2022-08-21T10:37:39;24.10;91.30
2389;DHT22;1205;47.984;7.668;2022-08-21T10:45:47;24.20;91.20
2389;DHT22;1205;47.984;7.668;2022-08-21T10:51:21;24.30;90.80
2389;DHT22;1205;47.984;7.668;2022-08-21T10:54:05;24.40;90.50
2389;DHT22;1205;47.984;7.668;2022-08-21T10:56:39;24.40;93.30
2389;DHT22;1205;47.984;7.668;2022-08-21T10:59:31;24.50;93.20
2389;DHT22;1205;47.984;7.668;2022-08-21T11:04:56;24.50;92.90
2389;DHT22;1205;47.984;7.668;2022-08-21T11:07:39;24.40;92.80
2389;DHT22;1205;47.984;7.668;2022-08-21T11:10:22;24.40;92.40
2389;DHT22;1205;47.984;7.668;2022-08-21T11:13:33;24.50;92.40
2389;DHT22;1205;47.984;7.668;2022-08-21T11:18:50;24.80;91.70
2389;DHT22;1205;47.984;7.668;2022-08-21T11:24:15;24.90;91.80
2389;DHT22;1205;47.984;7.668;2022-08-21T11:29:43;24.90;91.20
2389;DHT22;1205;47.984;7.668;2022-08-21T11:43:41;25.10;90.20
2389;DHT22;1205;47.984;7.668;2022-08-21T11:51:47;25.00;90.80
2389;DHT22;1205;47.984;7.668;2022-08-21T12:00:41;25.00;87.60
2389;DHT22;1205;47.984;7.668;2022-08-21T12:03:17;25.20;90.40
2389;DHT22;1205;47.984;7.668;2022-08-21T12:05:59;25.20;90.20
2389;DHT22;1205;47.984;7.668;2022-08-21T12:08:32;25.20;90.00
2389;DHT22;1205;47.984;7.668;2022-08-21T12:11:09;25.30;89.00
2389;DHT22;1205;47.984;7.668;2022-08-21T12:13:38;25.20;88.70
2389;DHT22;1205;47.984;7.668;2022-08-21T12:16:13;25.20;89.70
2389;DHT22;1205;47.984;7.668;2022-08-21T12:18:40;25.30;88.30
2389;DHT22;1205;47.984;7.668;2022-08-21T12:21:25;25.30;88.50
2389;DHT22;1205;47.984;7.668;2022-08-21T12:26:54;25.30;89.40
2389;DHT22;1205;47.984;7.668;2022-08-21T12:29:29;25.40;88.60
2389;DHT22;1205;47.984;7.668;2022-08-21T12:31:57;25.50;87.60
2389;DHT22;1205;47.984;7.668;2022-08-21T12:34:30;25.60;86.10
2389;DHT22;1205;47.984;7.668;2022-08-21T12:37:00;25.60;87.10
2389;DHT22;1205;47.984;7.668;2022-08-21T12:39:29;25.60;87.20
2389;DHT22;1205;47.984;7.668;2022-08-21T12:42:00;25.50;86.20
2389;DHT22;1205;47.984;7.668;2022-08-21T12:44:42;25.60;86.80
2389;DHT22;1205;47.984;7.668;2022-08-21T12:47:34;25.60;87.10
2389;DHT22;1205;47.984;7.668;2022-08-21T12:50:09;25.60;84.70
2389;DHT22;1205;47.984;7.668;2022-08-21T12:52:41;25.50;85.00
2389;DHT22;1205;47.984;7.668;2022-08-21T12:55:14;25.50;86.90
2389;DHT22;1205;47.984;7.668;2022-08-21T12:57:41;25.60;84.60
2389;DHT22;1205;47.984;7.668;2022-08-21T13:00:11;25.80;86.30
2389;DHT22;1205;47.984;7.668;2022-08-21T13:02:42;25.70;84.10
2389;DHT22;1205;47.984;7.668;2022-08-21T13:05:14;25.70;83.90
2389;DHT22;1205;47.984;7.668;2022-08-21T13:07:44;25.80;84.50
2389;DHT22;1205;47.984;7.668;2022-08-21T13:10:20;25.80;83.80
2389;DHT22;1205;47.984;7.668;2022-08-21T13:12:46;25.70;82.30
2389;DHT22;1205;47.984;7.668;2022-08-21T13:15:12;25.70;82.30
2389;DHT22;1205;47.984;7.668;2022-08-21T13:17:42;25.80;83.30
2389;DHT22;1205;47.984;7.668;2022-08-21T13:20:31;25.70;79.60
2389;DHT22;1205;47.984;7.668;2022-08-21T13:22:59;25.80;77.30
2389;DHT22;1205;47.984;7.668;2022-08-21T13:25:28;25.80;77.30
2389;DHT22;1205;47.984;7.668;2022-08-21T13:28:11;25.70;73.60
2389;DHT22;1205;47.984;7.668;2022-08-21T13:30:46;25.80;75.80
2389;DHT22;1205;47.984;7.668;2022-08-21T13:33:14;25.70;75.30
2389;DHT22;1205;47.984;7.668;2022-08-21T13:38:16;25.80;76.60
2389;DHT22;1205;47.984;7.668;2022-08-21T13:40:50;25.80;74.40
2389;DHT22;1205;47.984;7.668;2022-08-21T13:43:20;25.80;74.50
2389;DHT22;1205;47.984;7.668;2022-08-21T13:45:51;25.80;75.00
2389;DHT22;1205;47.984;7.668;2022-08-21T13:48:18;25.80;73.90
2389;DHT22;1205;47.984;7.668;2022-08-21T13:50:44;25.90;72.30
2389;DHT22;1205;47.984;7.668;2022-08-21T13:56:27;26.00;72.60
2389;DHT22;1205;47.984;7.668;2022-08-21T13:58:56;26.10;70.70
2389;DHT22;1205;47.984;7.668;2022-08-21T14:01:30;26.00;68.70
2389;DHT22;1205;47.984;7.668;2022-08-21T14:04:18;26.00;69.50
2389;DHT22;1205;47.984;7.668;2022-08-21T14:06:45;26.00;69.10
2389;DHT22;1205;47.984;7.668;2022-08-21T14:09:14;25.90;67.00
2389;DHT22;1205;47.984;7.668;2022-08-21T14:11:47;25.90;67.20
2389;DHT22;1205;47.984;7.668;2022-08-21T14:14:33;25.90;66.60
2389;DHT22;1205;47.984;7.668;2022-08-21T14:17:04;25.90;69.30
2389;DHT22;1205;47.984;7.668;2022-08-21T14:19:41;26.00;70.00
2389;DHT22;1205;47.984;7.668;2022-08-21T14:22:23;26.10;71.00
2389;DHT22;1205;47.984;7.668;2022-08-21T14:24:59;26.20;70.70
2389;DHT22;1205;47.984;7.668;2022-08-21T14:27:26;26.20;69.80
2389;DHT22;1205;47.984;7.668;2022-08-21T14:29:58;26.20;68.60
2389;DHT22;1205;47.984;7.668;2022-08-21T14:32:28;26.30;65.60
2389;DHT22;1205;47.984;7.668;2022-08-21T14:34:56;26.30;66.50
2389;DHT22;1205;47.984;7.668;2022-08-21T14:37:22;26.40;66.50
2389;DHT22;1205;47.984;7.668;2022-08-21T14:39:48;26.40;68.70
2389;DHT22;1205;47.984;7.668;2022-08-21T14:42:14;26.40;68.70
2389;DHT22;1205;47.984;7.668;2022-08-21T14:44:39;26.30;66.10
2389;DHT22;1205;47.984;7.668;2022-08-21T14:47:05;26.20;66.60
2389;DHT22;1205;47.984;7.668;2022-08-21T14:49:31;26.20;67.20
2389;DHT22;1205;47.984;7.668;2022-08-21T14:51:57;26.30;67.80
2389;DHT22;1205;47.984;7.668;2022-08-21T14:54:27;26.40;67.20
2389;DHT22;1205;47.984;7.668;2022-08-21T14:56:53;26.60;66.80
2389;DHT22;1205;47.984;7.668;2022-08-21T14:59:21;26.50;66.50
2389;DHT22;1205;47.984;7.668;2022-08-21T15:01:46;26.60;65.60
2389;DHT22;1205;47.984;7.668;2022-08-21T15:04:12;26.50;66.50
2389;DHT22;1205;47.984;7.668;2022-08-21T15:06:38;26.50;67.10
2389;DHT22;1205;47.984;7.668;2022-08-21T15:09:03;26.50;64.90
2389;DHT22;1205;47.984;7.668;2022-08-21T15:11:32;26.40;65.10
2389;DHT22;1205;47.984;7.668;2022-08-21T15:14:00;26.40;63.90
2389;DHT22;1205;47.984;7.668;2022-08-21T15:16:28;26.50;64.80
2389;DHT22;1205;47.984;7.668;2022-08-21T15:18:55;26.50;60.80
2389;DHT22;1205;47.984;7.668;2022-08-21T15:21:21;26.50;61.80
2389;DHT22;1205;47.984;7.668;2022-08-21T15:23:46;26.40;62.00
2389;DHT22;1205;47.984;7.668;2022-08-21T15:26:13;26.50;60.50
2389;DHT22;1205;47.984;7.668;2022-08-21T15:28:39;26.50;61.10
2389;DHT22;1205;47.984;7.668;2022-08-21T15:31:05;26.70;63.50
2389;DHT22;1205;47.984;7.668;2022-08-21T15:33:31;26.70;60.90
2389;DHT22;1205;47.984;7.668;2022-08-21T15:35:56;26.80;60.70
2389;DHT22;1205;47.984;7.668;2022-08-21T15:38:22;26.60;59.10
2389;DHT22;1205;47.984;7.668;2022-08-21T15:40:48;26.60;61.00
2389;DHT22;1205;47.984;7.668;2022-08-21T15:43:28;26.60;61.70
2389;DHT22;1205;47.984;7.668;2022-08-21T15:46:16;26.80;59.30
2389;DHT22;1205;47.984;7.668;2022-08-21T15:48:43;26.80;58.10
2389;DHT22;1205;47.984;7.668;2022-08-21T15:51:10;26.80;60.80
2389;DHT22;1205;47.984;7.668;2022-08-21T15:53:36;26.80;60.20
2389;DHT22;1205;47.984;7.668;2022-08-21T15:56:05;26.80;63.40
2389;DHT22;1205;47.984;7.668;2022-08-21T15:58:30;26.90;65.10
2389;DHT22;1205;47.984;7.668;2022-08-21T16:00:59;26.80;63.70
2389;DHT22;1205;47.984;7.668;2022-08-21T16:03:26;26.80;66.80
2389;DHT22;1205;47.984;7.668;2022-08-21T16:05:51;26.80;64.60
2389;DHT22;1205;47.984;7.668;2022-08-21T16:08:19;26.80;65.70
2389;DHT22;1205;47.984;7.668;2022-08-21T16:10:45;26.80;67.50
2389;DHT22;1205;47.984;7.668;2022-08-21T16:13:27;26.70;70.30
2389;DHT22;1205;47.984;7.668;2022-08-21T16:15:54;26.60;70.00
2389;DHT22;1205;47.984;7.668;2022-08-21T16:18:20;26.60;70.80
2389;DHT22;1205;47.984;7.668;2022-08-21T16:20:48;26.40;72.70
2389;DHT22;1205;47.984;7.668;2022-08-21T16:23:13;26.30;71.80
2389;DHT22;1205;47.984;7.668;2022-08-21T16:25:41;26.30;70.80
2389;DHT22;1205;47.984;7.668;2022-08-21T16:28:09;26.30;70.80
2389;DHT22;1205;47.984;7.668;2022-08-21T16:30:36;26.30;70.90
2389;DHT22;1205;47.984;7.668;2022-08-21T16:33:03;26.30;70.40
2389;DHT22;1205;47.984;7.668;2022-08-21T16:35:29;26.20;69.30
2389;DHT22;1205;47.984;7.668;2022-08-21T16:37:55;26.20;67.30
2389;DHT22;1205;47.984;7.668;2022-08-21T16:40:22;26.20;69.20
2389;DHT22;1205;47.984;7.668;2022-08-21T16:42:47;26.10;69.80
2389;DHT22;1205;47.984;7.668;2022-08-21T16:45:15;26.10;69.90
2389;DHT22;1205;47.984;7.668;2022-08-21T16:47:42;26.00;70.80
2389;DHT22;1205;47.984;7.668;2022-08-21T16:50:10;26.00;71.10
2389;DHT22;1205;47.984;7.668;2022-08-21T16:52:37;25.90;73.90
2389;DHT22;1205;47.984;7.668;2022-08-21T16:55:03;25.80;74.20
2389;DHT22;1205;47.984;7.668;2022-08-21T16:57:30;25.80;74.10
2389;DHT22;1205;47.984;7.668;2022-08-21T16:59:56;25.70;73.30
2389;DHT22;1205;47.984;7.668;2022-08-21T17:02:34;25.60;75.30
2389;DHT22;1205;47.984;7.668;2022-08-21T17:05:00;25.60;76.80
2389;DHT22;1205;47.984;7.668;2022-08-21T17:07:27;25.50;77.40
2389;DHT22;1205;47.984;7.668;2022-08-21T17:09:53;25.40;77.30
2389;DHT22;1205;47.984;7.668;2022-08-21T17:12:19;25.40;77.20
2389;DHT22;1205;47.984;7.668;2022-08-21T17:14:46;25.30;77.00
2389;DHT22;1205;47.984;7.668;2022-08-21T17:17:12;25.20;78.00
2389;DHT22;1205;47.984;7.668;2022-08-21T17:19:39;25.10;78.10
2389;DHT22;1205;47.984;7.668;2022-08-21T17:22:05;25.00;77.60
2389;DHT22;1205;47.984;7.668;2022-08-21T17:24:32;24.90;78.40
2389;DHT22;1205;47.984;7.668;2022-08-21T17:26:58;24.90;79.70
2389;DHT22;1205;47.984;7.668;2022-08-21T17:29:28;24.90;79.80
2389;DHT22;1205;47.984;7.668;2022-08-21T17:31:55;25.00;81.40
2389;DHT22;1205;47.984;7.668;2022-08-21T17:34:21;25.00;81.70